sensor_id;sensor_type;location;lat;lon;timestamp;temperature;humidity
5980;DHT22;3016;50.308;8.258;2023-05-23T05:25:25;14.70;1.00
5980;DHT22;3016;50.308;8.258;2023-05-23T05:34:53;14.80;1.00
5980;DHT22;3016;50.308;8.258;2023-05-23T05:37:55;14.80;1.00
5980;DHT22;3016;50.308;8.258;2023-05-23T05:40:57;14.80;1.00
5980;DHT22;3016;50.308;8.258;2023-05-23T05:50:25;14.70;1.00
5980;DHT22;3016;50.308;8.258;2023-05-23T06:06:10;14.80;1.00
5980;DHT22;3016;50.308;8.258;2023-05-23T06:09:13;14.70;1.00
5980;DHT22;3016;50.308;8.258;2023-05-23T06:12:17;14.70;1.00
5980;DHT22;3016;50.308;8.258;2023-05-23T06:15:28;14.70;1.00
5980;DHT22;3016;50.308;8.258;2023-05-23T06:28:23;14.70;1.00
5980;DHT22;3016;50.308;8.258;2023-05-23T06:37:46;14.70;1.00
5980;DHT22;3016;50.308;8.258;2023-05-23T06:40:49;14.70;1.00
5980;DHT22;3016;50.308;8.258;2023-05-23T06:56:32;15.50;1.00
5980;DHT22;3016;50.308;8.258;2023-05-23T06:59:40;15.70;1.00
5980;DHT22;3016;50.308;8.258;2023-05-23T07:13:39;15.50;1.00
5980;DHT22;3016;50.308;8.258;2023-05-23T07:16:41;15.50;1.00
5980;DHT22;3016;50.308;8.258;2023-05-23T07:19:45;15.50;1.00
5980;DHT22;3016;50.308;8.258;2023-05-23T07:22:48;15.50;1.00
5980;DHT22;3016;50.308;8.258;2023-05-23T07:29:01;15.60;1.00
5980;DHT22;3016;50.308;8.258;2023-05-23T07:32:02;15.70;1.00
5980;DHT22;3016;50.308;8.258;2023-05-23T07:35:06;15.80;1.00
5980;DHT22;3016;50.308;8.258;2023-05-23T07:41:23;16.30;1.00
5980;DHT22;3016;50.308;8.258;2023-05-23T07:44:25;16.50;1.00
5980;DHT22;3016;50.308;8.258;2023-05-23T07:47:26;16.60;1.00
5980;DHT22;3016;50.308;8.258;2023-05-23T07:50:29;16.60;1.00
5980;DHT22;3016;50.308;8.258;2023-05-23T07:53:31;16.40;1.00
5980;DHT22;3016;50.308;8.258;2023-05-23T07:56:34;16.20;1.00
5980;DHT22;3016;50.308;8.258;2023-05-23T07:59:37;16.10;1.00
5980;DHT22;3016;50.308;8.258;2023-05-23T08:08:55;16.80;1.00
5980;DHT22;3016;50.308;8.258;2023-05-23T08:11:57;16.90;1.00
5980;DHT22;3016;50.308;8.258;2023-05-23T08:14:58;16.70;1.00
5980;DHT22;3016;50.308;8.258;2023-05-23T08:18:04;16.60;1.00
5980;DHT22;3016;50.308;8.258;2023-05-23T08:21:05;16.60;1.00
5980;DHT22;3016;50.308;8.258;2023-05-23T08:24:06;16.50;1.00
5980;DHT22;3016;50.308;8.258;2023-05-23T08:27:08;16.40;1.00
5980;DHT22;3016;50.308;8.258;2023-05-23T08:30:10;16.30;1.00
5980;DHT22;3016;50.308;8.258;2023-05-23T08:33:11;16.10;1.00
5980;DHT22;3016;50.308;8.258;2023-05-23T08:36:12;16.10;1.00
5980;DHT22;3016;50.308;8.258;2023-05-23T08:39:14;16.00;1.00
5980;DHT22;3016;50.308;8.258;2023-05-23T08:45:26;15.90;1.00
5980;DHT22;3016;50.308;8.258;2023-05-23T09:31:08;18.30;1.00
5980;DHT22;3016;50.308;8.258;2023-05-23T09:34:10;18.30;1.00
5980;DHT22;3016;50.308;8.258;2023-05-23T09:37:12;18.10;1.00
5980;DHT22;3016;50.308;8.258;2023-05-23T09:40:17;17.90;1.00
5980;DHT22;3016;50.308;8.258;2023-05-23T09:43:18;17.70;1.00
5980;DHT22;3016;50.308;8.258;2023-05-23T09:46:26;17.60;1.00
5980;DHT22;3016;50.308;8.258;2023-05-23T09:49:28;17.60;1.00
5980;DHT22;3016;50.308;8.258;2023-05-23T09:52:45;17.60;1.00
5980;DHT22;3016;50.308;8.258;2023-05-23T09:55:49;17.50;1.00
5980;DHT22;3016;50.308;8.258;2023-05-23T09:58:50;17.40;1.00
5980;DHT22;3016;50.308;8.258;2023-05-23T10:01:55;17.40;1.00
5980;DHT22;3016;50.308;8.258;2023-05-23T10:04:57;17.20;1.00
5980;DHT22;3016;50.308;8.258;2023-05-23T10:08:01;17.00;1.00
5980;DHT22;3016;50.308;8.258;2023-05-23T10:14:13;16.60;1.00
5980;DHT22;3016;50.308;8.258;2023-05-23T10:20:38;16.30;1.00
5980;DHT22;3016;50.308;8.258;2023-05-23T10:23:41;16.10;1.00
5980;DHT22;3016;50.308;8.258;2023-05-23T10:26:44;16.10;1.00
5980;DHT22;3016;50.308;8.258;2023-05-23T10:29:45;16.30;1.00
5980;DHT22;3016;50.308;8.258;2023-05-23T10:32:47;16.50;1.00
5980;DHT22;3016;50.308;8.258;2023-05-23T10:36:09;16.70;1.00
5980;DHT22;3016;50.308;8.258;2023-05-23T10:39:32;16.70;1.00
5980;DHT22;3016;50.308;8.258;2023-05-23T10:43:01;16.60;1.00
5980;DHT22;3016;50.308;8.258;2023-05-23T10:46:22;16.50;1.00
5980;DHT22;3016;50.308;8.258;2023-05-23T10:49:39;16.30;1.00
5980;DHT22;3016;50.308;8.258;2023-05-23T10:52:41;16.20;1.00
5980;DHT22;3016;50.308;8.258;2023-05-23T10:55:48;16.30;1.00
5980;DHT22;3016;50.308;8.258;2023-05-23T10:58:55;16.30;1.00
5980;DHT22;3016;50.308;8.258;2023-05-23T11:01:59;16.30;1.00
5980;DHT22;3016;50.308;8.258;2023-05-23T11:05:19;16.30;1.00
5980;DHT22;3016;50.308;8.258;2023-05-23T11:08:28;16.30;1.00
5980;DHT22;3016;50.308;8.258;2023-05-23T11:12:00;16.40;1.00
5980;DHT22;3016;50.308;8.258;2023-05-23T11:15:24;16.50;1.00
5980;DHT22;3016;50.308;8.258;2023-05-23T11:18:27;16.50;1.00
5980;DHT22;3016;50.308;8.258;2023-05-23T11:21:30;16.60;1.00
5980;DHT22;3016;50.308;8.258;2023-05-23T11:24:51;16.50;1.00
5980;DHT22;3016;50.308;8.258;2023-05-23T11:27:53;16.40;1.00
5980;DHT22;3016;50.308;8.258;2023-05-23T11:30:56;16.50;1.00
5980;DHT22;3016;50.308;8.258;2023-05-23T11:33:56;16.60;1.00
5980;DHT22;3016;50.308;8.258;2023-05-23T11:36:57;16.70;1.00
5980;DHT22;3016;50.308;8.258;2023-05-23T11:39:58;16.80;1.00
5980;DHT22;3016;50.308;8.258;2023-05-23T11:43:03;16.80;1.00
5980;DHT22;3016;50.308;8.258;2023-05-23T11:46:11;16.70;1.00
5980;DHT22;3016;50.308;8.258;2023-05-23T11:49:12;16.70;1.00
5980;DHT22;3016;50.308;8.258;2023-05-23T11:52:13;16.70;1.00
5980;DHT22;3016;50.308;8.258;2023-05-23T11:55:14;16.80;1.00
5980;DHT22;3016;50.308;8.258;2023-05-23T11:58:15;16.70;1.00
5980;DHT22;3016;50.308;8.258;2023-05-23T12:01:16;16.80;1.00
5980;DHT22;3016;50.308;8.258;2023-05-23T12:04:16;16.90;1.00
5980;DHT22;3016;50.308;8.258;2023-05-23T12:07:20;17.20;1.00
5980;DHT22;3016;50.308;8.258;2023-05-23T12:10:25;17.50;1.00
5980;DHT22;3016;50.308;8.258;2023-05-23T12:13:30;17.60;1.00
5980;DHT22;3016;50.308;8.258;2023-05-23T12:16:31;17.80;1.00
5980;DHT22;3016;50.308;8.258;2023-05-23T12:19:33;17.90;1.00
5980;DHT22;3016;50.308;8.258;2023-05-23T12:22:38;17.80;1.00
5980;DHT22;3016;50.308;8.258;2023-05-23T12:25:49;17.60;1.00
5980;DHT22;3016;50.308;8.258;2023-05-23T12:28:51;17.50;1.00
5980;DHT22;3016;50.308;8.258;2023-05-23T12:31:52;17.30;1.00
5980;DHT22;3016;50.308;8.258;2023-05-23T12:34:52;17.10;1.00
5980;DHT22;3016;50.308;8.258;2023-05-23T12:37:55;17.00;1.00
5980;DHT22;3016;50.308;8.258;2023-05-23T12:41:09;16.90;1.00
5980;DHT22;3016;50.308;8.258;2023-05-23T12:44:14;16.80;1.00
5980;DHT22;3016;50.308;8.258;2023-05-23T12:47:15;16.70;1.00
5980;DHT22;3016;50.308;8.258;2023-05-23T12:50:16;16.70;1.00
5980;DHT22;3016;50.308;8.258;2023-05-23T12:53:18;16.70;1.00
5980;DHT22;3016;50.308;8.258;2023-05-23T12:56:19;16.70;1.00
5980;DHT22;3016;50.308;8.258;2023-05-23T12:59:21;16.60;1.00
5980;DHT22;3016;50.308;8.258;2023-05-23T13:02:22;16.60;1.00
5980;DHT22;3016;50.308;8.258;2023-05-23T13:05:23;16.60;1.00
5980;DHT22;3016;50.308;8.258;2023-05-23T13:08:25;16.60;1.00
5980;DHT22;3016;50.308;8.258;2023-05-23T13:11:26;16.90;1.00
5980;DHT22;3016;50.308;8.258;2023-05-23T13:14:27;17.00;1.00
5980;DHT22;3016;50.308;8.258;2023-05-23T13:17:28;16.90;1.00
5980;DHT22;3016;50.308;8.258;2023-05-23T13:20:29;16.80;1.00
5980;DHT22;3016;50.308;8.258;2023-05-23T13:23:29;16.70;1.00
5980;DHT22;3016;50.308;8.258;2023-05-23T13:26:30;16.50;1.00
5980;DHT22;3016;50.308;8.258;2023-05-23T13:29:32;16.50;1.00
5980;DHT22;3016;50.308;8.258;2023-05-23T13:32:33;16.40;1.00
5980;DHT22;3016;50.308;8.258;2023-05-23T13:35:33;16.40;1.00
5980;DHT22;3016;50.308;8.258;2023-05-23T13:38:37;16.50;1.00
5980;DHT22;3016;50.308;8.258;2023-05-23T13:41:37;16.40;1.00
5980;DHT22;3016;50.308;8.258;2023-05-23T13:44:38;16.40;1.00
5980;DHT22;3016;50.308;8.258;2023-05-23T13:47:39;16.40;1.00
5980;DHT22;3016;50.308;8.258;2023-05-23T13:50:41;16.30;1.00
5980;DHT22;3016;50.308;8.258;2023-05-23T13:53:47;16.10;1.00
5980;DHT22;3016;50.308;8.258;2023-05-23T13:56:48;16.00;1.00
5980;DHT22;3016;50.308;8.258;2023-05-23T13:59:49;16.00;1.00
5980;DHT22;3016;50.308;8.258;2023-05-23T14:02:49;15.90;1.00
5980;DHT22;3016;50.308;8.258;2023-05-23T14:15:25;15.60;1.00
5980;DHT22;3016;50.308;8.258;2023-05-23T14:18:26;15.60;1.00
5980;DHT22;3016;50.308;8.258;2023-05-23T14:21:27;15.60;1.00
5980;DHT22;3016;50.308;8.258;2023-05-23T14:24:28;15.60;1.00
5980;DHT22;3016;50.308;8.258;2023-05-23T14:27:31;15.70;1.00
5980;DHT22;3016;50.308;8.258;2023-05-23T14:30:33;15.70;1.00
5980;DHT22;3016;50.308;8.258;2023-05-23T14:33:35;15.80;1.00
5980;DHT22;3016;50.308;8.258;2023-05-23T14:36:36;15.80;1.00
5980;DHT22;3016;50.308;8.258;2023-05-23T14:39:37;15.80;1.00
5980;DHT22;3016;50.308;8.258;2023-05-23T14:42:38;16.00;1.00
5980;DHT22;3016;50.308;8.258;2023-05-23T14:45:40;16.10;1.00
5980;DHT22;3016;50.308;8.258;2023-05-23T14:48:41;16.40;1.00
5980;DHT22;3016;50.308;8.258;2023-05-23T14:51:43;16.70;1.00
5980;DHT22;3016;50.308;8.258;2023-05-23T14:55:02;16.80;1.00
5980;DHT22;3016;50.308;8.258;2023-05-23T14:58:06;17.10;1.00
5980;DHT22;3016;50.308;8.258;2023-05-23T15:01:15;17.30;1.00
5980;DHT22;3016;50.308;8.258;2023-05-23T15:04:19;17.30;1.00
5980;DHT22;3016;50.308;8.258;2023-05-23T15:07:21;17.10;1.00
5980;DHT22;3016;50.308;8.258;2023-05-23T15:10:22;17.00;1.00
5980;DHT22;3016;50.308;8.258;2023-05-23T15:13:34;16.70;1.00
5980;DHT22;3016;50.308;8.258;2023-05-23T15:16:37;16.40;1.00
5980;DHT22;3016;50.308;8.258;2023-05-23T15:19:39;16.30;1.00
5980;DHT22;3016;50.308;8.258;2023-05-23T15:22:42;16.10;1.00
5980;DHT22;3016;50.308;8.258;2023-05-23T15:25:43;16.00;1.00
5980;DHT22;3016;50.308;8.258;2023-05-23T15:28:45;15.80;1.00
5980;DHT22;3016;50.308;8.258;2023-05-23T15:31:47;15.70;1.00
5980;DHT22;3016;50.308;8.258;2023-05-23T15:34:48;15.70;1.00
5980;DHT22;3016;50.308;8.258;2023-05-23T15:37:51;15.80;1.00
5980;DHT22;3016;50.308;8.258;2023-05-23T15:40:52;15.80;1.00
5980;DHT22;3016;50.308;8.258;2023-05-23T15:43:59;15.80;1.00
5980;DHT22;3016;50.308;8.258;2023-05-23T15:47:01;15.80;1.00
5980;DHT22;3016;50.308;8.258;2023-05-23T15:50:03;15.80;1.00
5980;DHT22;3016;50.308;8.258;2023-05-23T15:53:05;15.80;1.00
5980;DHT22;3016;50.308;8.258;2023-05-23T15:56:07;16.00;1.00
5980;DHT22;3016;50.308;8.258;2023-05-23T15:59:10;16.10;1.00
5980;DHT22;3016;50.308;8.258;2023-05-23T16:02:18;16.20;1.00
5980;DHT22;3016;50.308;8.258;2023-05-23T16:05:20;16.30;1.00
5980;DHT22;3016;50.308;8.258;2023-05-23T16:08:22;16.40;1.00
5980;DHT22;3016;50.308;8.258;2023-05-23T16:11:23;16.40;1.00
5980;DHT22;3016;50.308;8.258;2023-05-23T16:17:35;16.10;1.00
5980;DHT22;3016;50.308;8.258;2023-05-23T16:20:36;16.20;1.00
5980;DHT22;3016;50.308;8.258;2023-05-23T16:23:39;16.40;1.00
5980;DHT22;3016;50.308;8.258;2023-05-23T16:26:40;16.60;1.00
5980;DHT22;3016;50.308;8.258;2023-05-23T16:29:42;16.60;1.00
5980;DHT22;3016;50.308;8.258;2023-05-23T16:32:51;16.50;1.00
5980;DHT22;3016;50.308;8.258;2023-05-23T16:35:53;16.50;1.00
5980;DHT22;3016;50.308;8.258;2023-05-23T16:38:57;16.40;1.00
5980;DHT22;3016;50.308;8.258;2023-05-23T16:42:02;16.50;1.00
5980;DHT22;3016;50.308;8.258;2023-05-23T16:45:05;16.60;1.00
5980;DHT22;3016;50.308;8.258;2023-05-23T16:48:08;16.60;1.00
5980;DHT22;3016;50.308;8.258;2023-05-23T16:51:20;16.40;1.00
5980;DHT22;3016;50.308;8.258;2023-05-23T16:54:21;16.20;1.00
5980;DHT22;3016;50.308;8.258;2023-05-23T16:57:22;16.00;1.00
5980;DHT22;3016;50.308;8.258;2023-05-23T17:00:23;15.80;1.00
5980;DHT22;3016;50.308;8.258;2023-05-23T17:03:35;15.70;1.00
5980;DHT22;3016;50.308;8.258;2023-05-23T17:06:47;15.60;1.00
5980;DHT22;3016;50.308;8.258;2023-05-23T17:09:49;15.50;1.00
5980;DHT22;3016;50.308;8.258;2023-05-23T17:12:50;15.70;1.00
5980;DHT22;3016;50.308;8.258;2023-05-23T17:15:51;15.60;1.00
5980;DHT22;3016;50.308;8.258;2023-05-23T17:18:52;15.60;1.00
5980;DHT22;3016;50.308;8.258;2023-05-23T17:21:55;15.60;1.00
5980;DHT22;3016;50.308;8.258;2023-05-23T17:24:58;15.60;1.00
5980;DHT22;3016;50.308;8.258;2023-05-23T17:28:01;15.40;1.00
5980;DHT22;3016;50.308;8.258;2023-05-23T17:31:02;15.30;1.00
5980;DHT22;3016;50.308;8.258;2023-05-23T17:34:03;15.20;1.00
5980;DHT22;3016;50.308;8.258;2023-05-23T17:37:04;15.30;1.00
5980;DHT22;3016;50.308;8.258;2023-05-23T17:40:05;15.30;1.00
5980;DHT22;3016;50.308;8.258;2023-05-23T17:43:06;15.20;1.00
5980;DHT22;3016;50.308;8.258;2023-05-23T17:46:07;15.20;1.00
5980;DHT22;3016;50.308;8.258;2023-05-23T17:49:08;15.10;1.00
5980;DHT22;3016;50.308;8.258;2023-05-23T17:52:09;15.00;1.00
5980;DHT22;3016;50.308;8.258;2023-05-23T17:55:14;15.00;1.00
5980;DHT22;3016;50.308;8.258;2023-05-23T17:58:14;15.00;1.00
5980;DHT22;3016;50.308;8.258;2023-05-23T18:01:16;15.00;1.00
5980;DHT22;3016;50.308;8.258;2023-05-23T18:04:20;15.00;1.00
5980;DHT22;3016;50.308;8.258;2023-05-23T18:07:21;14.90;1.00
5980;DHT22;3016;50.308;8.258;2023-05-23T18:10:23;14.80;1.00
5980;DHT22;3016;50.308;8.258;2023-05-23T18:13:24;14.70;1.00
5980;DHT22;3016;50.308;8.258;2023-05-23T18:16:25;14.60;1.00
5980;DHT22;3016;50.308;8.258;2023-05-23T18:19:27;14.50;1.00
5980;DHT22;3016;50.308;8.258;2023-05-23T18:22:29;14.50;1.00
5980;DHT22;3016;50.308;8.258;2023-05-23T18:25:32;14.40;1.00
5980;DHT22;3016;50.308;8.258;2023-05-23T18:28:41;14.30;1.00
5980;DHT22;3016;50.308;8.258;2023-05-23T18:31:43;14.30;1.00
5980;DHT22;3016;50.308;8.258;2023-05-23T18:34:45;14.30;1.00
5980;DHT22;3016;50.308;8.258;2023-05-23T18:38:05;14.20;1.00
5980;DHT22;3016;50.308;8.258;2023-05-23T18:41:06;14.20;1.00
5980;DHT22;3016;50.308;8.258;2023-05-23T18:44:10;14.20;1.00
5980;DHT22;3016;50.308;8.258;2023-05-23T18:47:14;14.10;1.00
5980;DHT22;3016;50.308;8.258;2023-05-23T18:50:15;14.10;1.00
5980;DHT22;3016;50.308;8.258;2023-05-23T18:53:16;14.10;1.00
5980;DHT22;3016;50.308;8.258;2023-05-23T18:56:19;14.00;1.00
5980;DHT22;3016;50.308;8.258;2023-05-23T18:59:21;13.90;1.00
5980;DHT22;3016;50.308;8.258;2023-05-23T19:02:40;13.80;1.00
5980;DHT22;3016;50.308;8.258;2023-05-23T19:05:51;13.80;1.00
5980;DHT22;3016;50.308;8.258;2023-05-23T19:08:54;13.80;1.00
5980;DHT22;3016;50.308;8.258;2023-05-23T19:11:55;13.80;1.00
5980;DHT22;3016;50.308;8.258;2023-05-23T19:14:56;13.70;1.00
5980;DHT22;3016;50.308;8.258;2023-05-23T19:18:00;13.70;1.00
5980;DHT22;3016;50.308;8.258;2023-05-23T19:21:02;13.60;1.00
5980;DHT22;3016;50.308;8.258;2023-05-23T19:24:03;13.60;1.00
5980;DHT22;3016;50.308;8.258;2023-05-23T19:27:06;13.60;1.00
5980;DHT22;3016;50.308;8.258;2023-05-23T19:30:08;13.50;1.00
5980;DHT22;3016;50.308;8.258;2023-05-23T19:33:09;13.40;1.00
5980;DHT22;3016;50.308;8.258;2023-05-23T19:36:11;13.40;1.00
5980;DHT22;3016;50.308;8.258;2023-05-23T19:39:12;13.30;1.00
5980;DHT22;3016;50.308;8.258;2023-05-23T19:42:14;13.20;1.00
5980;DHT22;3016;50.308;8.258;2023-05-23T19:45:16;13.10;1.00
5980;DHT22;3016;50.308;8.258;2023-05-23T19:48:18;13.00;1.00
5980;DHT22;3016;50.308;8.258;2023-05-23T19:51:35;13.00;1.00
5980;DHT22;3016;50.308;8.258;2023-05-23T19:54:39;13.00;1.00
5980;DHT22;3016;50.308;8.258;2023-05-23T19:57:40;12.90;1.00
5980;DHT22;3016;50.308;8.258;2023-05-23T20:00:41;12.80;1.00
5980;DHT22;3016;50.308;8.258;2023-05-23T20:03:42;12.70;1.00
5980;DHT22;3016;50.308;8.258;2023-05-23T20:06:44;12.70;1.00
5980;DHT22;3016;50.308;8.258;2023-05-23T20:09:46;12.70;1.00
5980;DHT22;3016;50.308;8.258;2023-05-23T20:12:47;12.70;1.00
5980;DHT22;3016;50.308;8.258;2023-05-23T20:15:50;12.60;1.00
5980;DHT22;3016;50.308;8.258;2023-05-23T20:18:52;12.60;1.00
5980;DHT22;3016;50.308;8.258;2023-05-23T20:21:59;12.50;1.00
5980;DHT22;3016;50.308;8.258;2023-05-23T20:25:00;12.40;1.00
5980;DHT22;3016;50.308;8.258;2023-05-23T20:28:02;12.40;1.00
5980;DHT22;3016;50.308;8.258;2023-05-23T20:31:10;12.30;1.00
5980;DHT22;3016;50.308;8.258;2023-05-23T20:34:15;12.30;1.00
5980;DHT22;3016;50.308;8.258;2023-05-23T20:40:44;12.20;1.00
5980;DHT22;3016;50.308;8.258;2023-05-23T20:46:56;12.20;1.00
5980;DHT22;3016;50.308;8.258;2023-05-23T20:49:58;12.10;1.00
5980;DHT22;3016;50.308;8.258;2023-05-23T20:53:05;12.10;1.00
5980;DHT22;3016;50.308;8.258;2023-05-23T20:56:11;12.00;1.00
5980;DHT22;3016;50.308;8.258;2023-05-23T20:59:13;11.90;1.00
5980;DHT22;3016;50.308;8.258;2023-05-23T21:02:15;11.80;1.00
5980;DHT22;3016;50.308;8.258;2023-05-23T21:05:17;11.70;1.00
5980;DHT22;3016;50.308;8.258;2023-05-23T21:08:18;11.60;1.00
5980;DHT22;3016;50.308;8.258;2023-05-23T21:11:19;11.60;1.00
5980;DHT22;3016;50.308;8.258;2023-05-23T21:14:20;11.60;1.00
5980;DHT22;3016;50.308;8.258;2023-05-23T21:17:22;11.60;1.00
5980;DHT22;3016;50.308;8.258;2023-05-23T21:20:24;11.50;1.00
5980;DHT22;3016;50.308;8.258;2023-05-23T21:23:25;11.40;1.00
5980;DHT22;3016;50.308;8.258;2023-05-23T21:26:26;11.20;1.00
5980;DHT22;3016;50.308;8.258;2023-05-23T21:29:27;11.00;1.00
5980;DHT22;3016;50.308;8.258;2023-05-23T21:32:28;10.90;1.00
5980;DHT22;3016;50.308;8.258;2023-05-23T21:35:29;10.80;1.00
5980;DHT22;3016;50.308;8.258;2023-05-23T21:38:31;10.70;1.00
5980;DHT22;3016;50.308;8.258;2023-05-23T21:41:32;10.60;1.00
5980;DHT22;3016;50.308;8.258;2023-05-23T21:44:33;10.50;1.00
5980;DHT22;3016;50.308;8.258;2023-05-23T21:47:34;10.40;1.00
5980;DHT22;3016;50.308;8.258;2023-05-23T21:50:35;10.30;1.00
5980;DHT22;3016;50.308;8.258;2023-05-23T21:53:36;10.30;1.00
5980;DHT22;3016;50.308;8.258;2023-05-23T21:56:37;10.10;1.00
5980;DHT22;3016;50.308;8.258;2023-05-23T21:59:38;9.90;1.00
5980;DHT22;3016;50.308;8.258;2023-05-23T22:02:39;9.70;1.00
5980;DHT22;3016;50.308;8.258;2023-05-23T22:05:40;9.70;1.00
5980;DHT22;3016;50.308;8.258;2023-05-23T22:08:41;9.70;1.00
5980;DHT22;3016;50.308;8.258;2023-05-23T22:11:45;9.70;1.00
5980;DHT22;3016;50.308;8.258;2023-05-23T22:14:45;9.50;1.00
5980;DHT22;3016;50.308;8.258;2023-05-23T22:17:46;9.40;1.00
5980;DHT22;3016;50.308;8.258;2023-05-23T22:20:47;9.30;1.00
5980;DHT22;3016;50.308;8.258;2023-05-23T22:23:48;9.20;1.00
5980;DHT22;3016;50.308;8.258;2023-05-23T22:26:49;9.10;1.00
5980;DHT22;3016;50.308;8.258;2023-05-23T22:29:50;9.10;1.00
5980;DHT22;3016;50.308;8.258;2023-05-23T22:32:51;9.10;1.00
5980;DHT22;3016;50.308;8.258;2023-05-23T22:35:52;9.10;1.00
5980;DHT22;3016;50.308;8.258;2023-05-23T22:38:53;9.00;1.00
5980;DHT22;3016;50.308;8.258;2023-05-23T22:41:53;9.00;1.00
5980;DHT22;3016;50.308;8.258;2023-05-23T22:44:54;8.90;1.00
5980;DHT22;3016;50.308;8.258;2023-05-23T22:47:55;8.80;1.00
5980;DHT22;3016;50.308;8.258;2023-05-23T22:50:57;8.80;1.00
5980;DHT22;3016;50.308;8.258;2023-05-23T22:53:59;8.70;1.00
5980;DHT22;3016;50.308;8.258;2023-05-23T22:57:00;8.60;1.00
5980;DHT22;3016;50.308;8.258;2023-05-23T23:00:01;8.50;1.00
5980;DHT22;3016;50.308;8.258;2023-05-23T23:03:02;8.50;1.00
5980;DHT22;3016;50.308;8.258;2023-05-23T23:06:03;8.50;1.00
5980;DHT22;3016;50.308;8.258;2023-05-23T23:09:08;8.50;1.00
5980;DHT22;3016;50.308;8.258;2023-05-23T23:12:09;8.40;1.00
5980;DHT22;3016;50.308;8.258;2023-05-23T23:15:10;8.40;1.00
5980;DHT22;3016;50.308;8.258;2023-05-23T23:18:11;8.30;1.00
5980;DHT22;3016;50.308;8.258;2023-05-23T23:21:12;8.30;1.00
5980;DHT22;3016;50.308;8.258;2023-05-23T23:24:13;8.20;1.00
5980;DHT22;3016;50.308;8.258;2023-05-23T23:27:14;8.20;1.00
5980;DHT22;3016;50.308;8.258;2023-05-23T23:30:15;8.00;1.00
5980;DHT22;3016;50.308;8.258;2023-05-23T23:33:16;8.00;1.00
5980;DHT22;3016;50.308;8.258;2023-05-23T23:36:17;7.90;1.00
5980;DHT22;3016;50.308;8.258;2023-05-23T23:39:17;7.80;1.00
5980;DHT22;3016;50.308;8.258;2023-05-23T23:42:18;7.80;1.00
5980;DHT22;3016;50.308;8.258;2023-05-23T23:45:19;7.70;1.00
5980;DHT22;3016;50.308;8.258;2023-05-23T23:48:20;7.60;1.00
5980;DHT22;3016;50.308;8.258;2023-05-23T23:51:21;7.60;1.00
5980;DHT22;3016;50.308;8.258;2023-05-23T23:54:22;7.50;1.00
5980;DHT22;3016;50.308;8.258;2023-05-23T23:57:22;7.50;1.00
